createdAt,value
2019-03-19T00:02:29.990Z,8.80
2019-03-19T00:05:01.873Z,8.03
2019-03-19T00:07:33.492Z,9.00
2019-03-19T00:10:06.673Z,8.43
2019-03-19T00:12:38.293Z,7.53
2019-03-19T00:15:10.312Z,8.07
2019-03-19T00:17:42.516Z,8.33
2019-03-19T00:20:14.782Z,8.17
2019-03-19T00:22:46.392Z,7.63
2019-03-19T00:25:29.838Z,8.43
2019-03-19T00:27:55.193Z,8.97
2019-03-19T00:30:26.862Z,8.33
2019-03-19T00:32:58.456Z,8.20
2019-03-19T00:35:30.632Z,7.57
2019-03-19T00:38:02.318Z,7.97
2019-03-19T00:40:34.432Z,7.90
2019-03-19T00:43:06.012Z,8.13
2019-03-19T00:45:37.702Z,7.87
2019-03-19T00:48:09.722Z,7.73
2019-03-19T00:50:41.392Z,9.00
2019-03-19T00:53:13.061Z,8.27
2019-03-19T00:55:44.692Z,8.30
2019-03-19T00:58:16.624Z,8.23
2019-03-19T01:00:48.682Z,8.17
2019-03-19T01:03:20.280Z,9.00
2019-03-19T01:05:51.932Z,8.40
2019-03-19T01:08:23.552Z,8.20
2019-03-19T01:10:55.472Z,8.83
2019-03-19T01:13:27.052Z,7.93
2019-03-19T01:15:58.833Z,7.97
2019-03-19T01:18:30.873Z,7.73
2019-03-19T01:21:02.851Z,7.70
2019-03-19T01:23:34.432Z,8.07
2019-03-19T01:26:13.033Z,8.63
2019-03-19T01:28:44.672Z,7.77
2019-03-19T01:31:16.372Z,8.20
2019-03-19T01:33:47.992Z,8.80
2019-03-19T01:36:19.712Z,7.30
2019-03-19T01:38:51.314Z,7.77
2019-03-19T01:41:23.373Z,7.90
2019-03-19T01:43:55.062Z,8.30
2019-03-19T01:46:26.741Z,7.50
2019-03-19T01:48:58.912Z,7.90
2019-03-19T01:51:30.792Z,7.40
2019-03-19T01:54:02.583Z,7.70
2019-03-19T01:56:34.312Z,8.13
2019-03-19T01:59:05.922Z,7.53
2019-03-19T02:01:37.662Z,7.10
2019-03-19T02:04:09.277Z,7.50
2019-03-19T02:06:41.302Z,7.63
2019-03-19T02:09:13.072Z,7.10
2019-03-19T02:11:46.153Z,9.00
2019-03-19T02:14:17.852Z,7.63
2019-03-19T02:16:49.520Z,7.53
2019-03-19T02:19:21.215Z,7.80
2019-03-19T02:21:52.993Z,6.57
2019-03-19T02:24:24.735Z,6.93
2019-03-19T02:26:56.752Z,7.83
2019-03-19T02:29:28.432Z,7.30
2019-03-19T02:32:00.206Z,7.37
2019-03-19T02:34:31.900Z,7.47
2019-03-19T02:37:03.633Z,8.03
2019-03-19T02:39:36.205Z,7.20
2019-03-19T02:42:08.514Z,7.40
2019-03-19T02:44:40.113Z,7.10
2019-03-19T02:47:11.857Z,6.43
2019-03-19T02:49:43.531Z,7.20
2019-03-19T02:52:15.571Z,7.53
2019-03-19T02:54:47.256Z,7.27
2019-03-19T02:57:19.253Z,6.93
2019-03-19T02:59:51.151Z,6.73
2019-03-19T03:02:23.213Z,6.30
2019-03-19T03:04:54.866Z,6.40
2019-03-19T03:07:26.613Z,6.83
2019-03-19T03:09:58.312Z,7.10
2019-03-19T03:12:31.953Z,6.17
2019-03-19T03:15:04.113Z,6.30
2019-03-19T03:17:36.093Z,6.73
2019-03-19T03:20:08.573Z,6.83
2019-03-19T03:22:40.243Z,6.97
2019-03-19T03:25:12.214Z,6.87
2019-03-19T03:27:44.072Z,6.20
2019-03-19T03:30:22.369Z,7.20
2019-03-19T03:32:54.355Z,7.10
2019-03-19T03:35:25.941Z,7.07
2019-03-19T03:37:57.708Z,7.50
2019-03-19T03:40:29.373Z,7.00
2019-03-19T03:43:01.934Z,6.87
2019-03-19T03:45:33.633Z,6.63
2019-03-19T03:48:05.517Z,7.90
2019-03-19T03:50:37.073Z,7.33
2019-03-19T03:53:08.723Z,6.30
2019-03-19T03:55:40.299Z,6.20
2019-03-19T03:58:11.977Z,6.63
2019-03-19T04:00:43.533Z,7.37
2019-03-19T04:03:15.553Z,7.07
2019-03-19T04:05:47.173Z,6.80
2019-03-19T04:08:19.254Z,6.43
2019-03-19T04:10:50.878Z,6.40
2019-03-19T04:13:29.196Z,6.57
2019-03-19T04:16:00.882Z,7.40
2019-03-19T04:18:32.703Z,7.10
2019-03-19T04:21:04.373Z,6.80
2019-03-19T04:23:36.057Z,6.37
2019-03-19T04:26:07.673Z,6.73
2019-03-19T04:28:39.415Z,6.87
2019-03-19T04:31:11.022Z,6.63
2019-03-19T04:33:43.072Z,7.47
2019-03-19T04:36:14.739Z,6.73
2019-03-19T04:38:46.473Z,6.13
2019-03-19T04:41:18.092Z,6.13
2019-03-19T04:43:50.422Z,6.63
2019-03-19T04:46:22.116Z,6.40
2019-03-19T04:48:53.942Z,6.77
2019-03-19T04:51:25.560Z,6.43
2019-03-19T04:53:58.435Z,7.13
2019-03-19T04:56:30.101Z,7.80
2019-03-19T04:59:01.972Z,8.10
2019-03-19T05:01:33.824Z,7.97
2019-03-19T05:04:05.512Z,11.47
2019-03-19T05:06:37.232Z,9.47
2019-03-19T05:09:09.241Z,12.43
2019-03-19T05:11:41.074Z,13.23
2019-03-19T05:14:16.913Z,11.63
2019-03-19T05:16:49.060Z,8.23
2019-03-19T05:19:20.772Z,10.83
2019-03-19T05:21:52.332Z,10.70
2019-03-19T05:24:24.397Z,11.20
2019-03-19T05:26:56.142Z,11.67
2019-03-19T05:29:28.011Z,8.77
2019-03-19T05:31:59.622Z,9.50
2019-03-19T05:34:32.033Z,9.83
2019-03-19T05:37:03.852Z,7.07
2019-03-19T05:39:35.593Z,6.97
2019-03-19T05:42:07.553Z,7.40
2019-03-19T05:44:39.413Z,7.17
2019-03-19T05:47:11.062Z,6.53
2019-03-19T05:49:42.932Z,7.03
2019-03-19T05:52:14.593Z,7.40
2019-03-19T05:54:46.522Z,9.03
2019-03-19T05:57:18.272Z,8.07
2019-03-19T05:59:50.343Z,8.20
2019-03-19T06:02:22.032Z,8.23
2019-03-19T06:04:53.864Z,8.33
2019-03-19T06:07:25.712Z,7.97
2019-03-19T06:09:58.072Z,5.97
2019-03-19T06:12:29.740Z,6.00
2019-03-19T06:15:03.995Z,6.20
2019-03-19T06:17:35.782Z,5.90
2019-03-19T06:20:09.696Z,6.30
2019-03-19T06:22:41.403Z,6.43
2019-03-19T06:25:13.512Z,5.07
2019-03-19T06:27:45.194Z,6.00
2019-03-19T06:30:18.954Z,5.83
2019-03-19T06:32:51.852Z,5.90
2019-03-19T06:35:23.625Z,6.07
2019-03-19T06:37:55.194Z,5.37
2019-03-19T06:40:27.293Z,4.50
2019-03-19T06:42:58.973Z,5.97
2019-03-19T06:45:31.198Z,5.07
2019-03-19T06:48:02.862Z,6.93
2019-03-19T06:50:44.760Z,6.10
2019-03-19T06:53:08.263Z,7.40
2019-03-19T06:55:39.942Z,5.93
2019-03-19T06:58:11.588Z,7.90
2019-03-19T07:00:43.682Z,6.90
2019-03-19T07:03:15.232Z,7.20
2019-03-19T07:05:47.063Z,8.20
2019-03-19T07:08:18.847Z,8.20
2019-03-19T07:10:50.912Z,7.93
2019-03-19T07:13:22.572Z,8.20
2019-03-19T07:16:01.365Z,8.67
2019-03-19T07:18:33.944Z,8.10
2019-03-19T07:21:05.831Z,8.87
2019-03-19T07:23:38.754Z,9.37
2019-03-19T07:26:11.876Z,9.07
2019-03-19T07:28:43.592Z,9.00
2019-03-19T07:31:15.373Z,8.33
2019-03-19T07:33:47.092Z,6.37
2019-03-19T07:36:18.812Z,6.80
2019-03-19T07:38:50.635Z,8.90
2019-03-19T07:41:22.462Z,8.83
2019-03-19T07:43:54.250Z,8.27
2019-03-19T07:46:26.242Z,9.00
2019-03-19T07:48:58.952Z,8.30
2019-03-19T07:51:30.696Z,7.80
2019-03-19T07:54:02.400Z,7.60
2019-03-19T07:56:34.374Z,7.10
2019-03-19T07:59:06.100Z,7.20
2019-03-19T08:01:39.522Z,7.97
2019-03-19T08:04:11.132Z,8.80
2019-03-19T08:06:43.075Z,8.17
2019-03-19T08:09:14.712Z,7.83
2019-03-19T08:11:46.771Z,9.47
2019-03-19T08:14:18.363Z,8.27
2019-03-19T08:16:53.263Z,9.23
2019-03-19T08:19:25.182Z,9.77
2019-03-19T08:21:58.193Z,7.97
2019-03-19T08:24:29.833Z,8.27
2019-03-19T08:27:01.812Z,7.77
2019-03-19T08:29:34.751Z,5.00
2019-03-19T08:32:06.873Z,5.60
2019-03-19T08:34:38.481Z,4.93
2019-03-19T08:37:10.160Z,4.10
2019-03-19T08:39:41.834Z,4.60
2019-03-19T08:42:13.492Z,4.20
2019-03-19T08:44:45.112Z,4.70
2019-03-19T08:47:17.873Z,4.37
2019-03-19T08:49:49.622Z,3.90
2019-03-19T08:52:21.392Z,4.10
2019-03-19T08:54:53.182Z,3.53
2019-03-19T08:57:25.332Z,3.70
2019-03-19T08:59:57.267Z,3.83
2019-03-19T09:02:29.342Z,4.00
2019-03-19T09:05:03.002Z,4.70
2019-03-19T09:07:34.430Z,5.87
2019-03-19T09:10:07.892Z,5.97
2019-03-19T09:12:39.962Z,5.50
2019-03-19T09:15:15.535Z,5.50
2019-03-19T09:17:53.680Z,5.63
2019-03-19T09:20:25.376Z,5.40
2019-03-19T09:22:57.073Z,5.17
2019-03-19T09:25:28.757Z,6.03
2019-03-19T09:28:00.862Z,4.67
2019-03-19T09:30:32.572Z,5.10
2019-03-19T09:33:04.363Z,4.80
2019-03-19T09:35:35.925Z,5.07
2019-03-19T09:38:07.623Z,4.77
2019-03-19T09:40:39.380Z,4.50
2019-03-19T09:43:11.033Z,4.27
2019-03-19T09:45:42.866Z,4.40
2019-03-19T09:48:15.032Z,4.30
2019-03-19T09:50:46.632Z,4.67
2019-03-19T09:53:18.824Z,6.03
2019-03-19T09:55:50.712Z,5.80
2019-03-19T09:58:22.672Z,5.90
2019-03-19T10:00:54.352Z,5.10
2019-03-19T10:03:26.033Z,4.93
2019-03-19T10:05:57.683Z,5.07
2019-03-19T10:08:29.394Z,4.97
2019-03-19T10:11:01.233Z,5.70
2019-03-19T10:13:32.962Z,5.90
2019-03-19T10:16:04.740Z,5.60
2019-03-19T10:18:38.838Z,7.50
2019-03-19T10:21:10.563Z,5.93
2019-03-19T10:23:43.537Z,6.80
2019-03-19T10:26:15.153Z,6.07
2019-03-19T10:28:46.915Z,5.57
2019-03-19T10:31:18.572Z,5.50
2019-03-19T10:33:50.356Z,5.80
2019-03-19T10:36:22.122Z,5.60
2019-03-19T10:38:54.042Z,4.97
2019-03-19T10:41:25.642Z,4.70
2019-03-19T10:43:57.382Z,5.63
2019-03-19T10:46:28.953Z,6.00
2019-03-19T10:49:01.126Z,5.50
2019-03-19T10:51:35.057Z,8.27
2019-03-19T10:54:06.333Z,5.20
2019-03-19T10:56:39.005Z,5.50
2019-03-19T10:59:11.024Z,5.63
2019-03-19T11:01:42.612Z,8.83
2019-03-19T11:04:14.512Z,6.43
2019-03-19T11:06:46.322Z,6.27
2019-03-19T11:09:18.413Z,4.90
2019-03-19T11:11:50.034Z,8.63
2019-03-19T11:14:22.094Z,5.17
2019-03-19T11:16:53.712Z,5.30
2019-03-19T11:19:32.092Z,5.33
2019-03-19T11:22:03.717Z,4.70
2019-03-19T11:24:35.861Z,5.20
2019-03-19T11:27:07.662Z,5.40
2019-03-19T11:29:39.382Z,5.50
2019-03-19T11:32:11.032Z,5.43
2019-03-19T11:34:42.832Z,5.97
2019-03-19T11:37:14.473Z,6.10
2019-03-19T11:39:46.133Z,4.93
2019-03-19T11:42:17.720Z,5.20
2019-03-19T11:44:49.576Z,5.47
2019-03-19T11:47:21.212Z,6.80
2019-03-19T11:49:57.255Z,5.80
2019-03-19T11:52:28.942Z,6.30
2019-03-19T11:55:00.652Z,6.60
2019-03-19T11:57:32.332Z,6.70
2019-03-19T12:00:19.092Z,6.30
2019-03-19T12:02:50.773Z,6.37
2019-03-19T12:05:22.578Z,6.80
2019-03-19T12:07:54.846Z,6.93
2019-03-19T12:10:26.632Z,6.47
2019-03-19T12:12:58.302Z,6.40
2019-03-19T12:15:30.122Z,5.97
2019-03-19T12:18:01.753Z,6.80
2019-03-19T12:20:34.122Z,8.40
2019-03-19T12:23:05.760Z,7.40
2019-03-19T12:25:37.612Z,6.40
2019-03-19T12:28:09.244Z,5.50
2019-03-19T12:30:40.992Z,7.20
2019-03-19T12:33:12.642Z,7.67
2019-03-19T12:35:44.400Z,7.50
2019-03-19T12:38:16.087Z,7.80
2019-03-19T12:40:47.943Z,8.03
2019-03-19T12:43:19.502Z,7.80
2019-03-19T12:45:51.202Z,7.80
2019-03-19T12:48:24.071Z,7.30
2019-03-19T12:50:56.255Z,10.20
2019-03-19T12:53:27.853Z,9.10
2019-03-19T12:55:59.612Z,8.40
2019-03-19T12:58:31.172Z,8.10
2019-03-19T13:01:02.948Z,8.10
2019-03-19T13:03:34.592Z,9.23
2019-03-19T13:06:06.322Z,8.43
2019-03-19T13:08:37.951Z,7.73
2019-03-19T13:11:09.760Z,9.60
2019-03-19T13:13:41.800Z,6.83
2019-03-19T13:16:14.682Z,5.87
2019-03-19T13:18:46.335Z,7.23
2019-03-19T13:21:22.492Z,6.37
2019-03-19T13:23:54.052Z,6.67
2019-03-19T13:26:25.761Z,5.47
2019-03-19T13:28:57.712Z,6.17
2019-03-19T13:31:29.612Z,6.40
2019-03-19T13:34:01.224Z,7.70
2019-03-19T13:36:32.942Z,8.10
2019-03-19T13:39:05.554Z,8.80
2019-03-19T13:41:37.342Z,7.80
2019-03-19T13:44:11.268Z,6.20
2019-03-19T13:46:42.512Z,6.73
2019-03-19T13:49:14.192Z,6.70
2019-03-19T13:51:46.552Z,7.50
2019-03-19T13:54:18.342Z,7.40
2019-03-19T13:56:50.392Z,8.07
2019-03-19T13:59:22.052Z,8.30
2019-03-19T14:01:53.823Z,7.27
2019-03-19T14:04:25.894Z,6.90
2019-03-19T14:06:58.772Z,7.00
2019-03-19T14:09:30.380Z,6.83
2019-03-19T14:12:02.043Z,6.80
2019-03-19T14:14:33.743Z,7.53
2019-03-19T14:17:12.225Z,7.23
2019-03-19T14:19:43.872Z,6.33
2019-03-19T14:22:15.570Z,6.90
2019-03-19T14:28:32.942Z,6.53
2019-03-19T14:31:08.849Z,7.40
2019-03-19T14:33:38.044Z,7.63
2019-03-19T14:36:10.428Z,9.40
2019-03-19T14:38:47.063Z,8.77
2019-03-19T14:41:15.664Z,9.07
2019-03-19T14:43:47.505Z,7.23
2019-03-19T14:46:19.112Z,7.27
2019-03-19T14:48:51.424Z,7.50
2019-03-19T14:51:23.004Z,7.50
2019-03-19T14:53:54.704Z,7.60
2019-03-19T14:56:26.304Z,8.77
2019-03-19T14:58:58.063Z,11.37
2019-03-19T15:01:29.704Z,7.50
2019-03-19T15:04:01.525Z,6.80
2019-03-19T15:06:33.274Z,7.07
2019-03-19T15:09:05.354Z,7.63
2019-03-19T15:11:36.942Z,7.40
2019-03-19T15:14:09.824Z,7.20
2019-03-19T15:16:41.444Z,6.37
2019-03-19T15:19:13.975Z,6.70
2019-03-19T15:21:46.954Z,6.23
2019-03-19T15:24:18.824Z,6.77
2019-03-19T15:26:50.444Z,7.83
2019-03-19T15:29:22.254Z,8.20
2019-03-19T15:31:53.878Z,8.33
2019-03-19T15:34:25.742Z,8.27
2019-03-19T15:36:57.426Z,8.30
2019-03-19T15:39:29.235Z,8.17
2019-03-19T15:42:01.006Z,8.43
2019-03-19T15:44:32.962Z,10.63
2019-03-19T15:47:04.644Z,10.23
2019-03-19T15:49:38.387Z,9.93
2019-03-19T15:52:10.384Z,8.33
2019-03-19T15:54:42.114Z,8.13
2019-03-19T15:57:13.924Z,9.37
2019-03-19T15:59:45.836Z,8.53
2019-03-19T16:02:17.554Z,8.23
2019-03-19T16:04:49.364Z,7.77
2019-03-19T16:07:21.314Z,8.57
2019-03-19T16:09:53.184Z,8.63
2019-03-19T16:12:24.932Z,10.70
2019-03-19T16:14:56.725Z,11.13
2019-03-19T16:17:28.362Z,11.10
2019-03-19T16:20:05.955Z,9.73
2019-03-19T16:22:37.555Z,9.70
2019-03-19T16:25:10.817Z,8.93
2019-03-19T16:27:42.506Z,9.60
2019-03-19T16:30:15.984Z,9.17
2019-03-19T16:32:49.858Z,11.23
2019-03-19T16:35:21.724Z,11.90
2019-03-19T16:37:53.317Z,9.87
2019-03-19T16:40:25.034Z,9.90
2019-03-19T16:42:56.625Z,9.60
2019-03-19T16:45:28.285Z,11.00
2019-03-19T16:47:59.905Z,10.40
2019-03-19T16:50:32.224Z,10.50
2019-03-19T16:53:03.964Z,10.30
2019-03-19T16:55:35.624Z,10.13
2019-03-19T16:58:07.214Z,9.80
2019-03-19T17:00:38.914Z,10.87
2019-03-19T17:03:10.622Z,10.70
2019-03-19T17:05:42.397Z,10.20
2019-03-19T17:08:14.154Z,11.03
2019-03-19T17:10:45.897Z,10.20
2019-03-19T17:13:17.584Z,10.23
2019-03-19T17:15:49.274Z,10.63
2019-03-19T17:18:20.889Z,11.83
2019-03-19T17:20:58.934Z,10.90
2019-03-19T17:23:30.515Z,10.33
2019-03-19T17:26:02.204Z,10.83
2019-03-19T17:28:33.859Z,12.73
2019-03-19T17:31:05.514Z,14.73
2019-03-19T17:33:37.144Z,16.23
2019-03-19T17:36:08.844Z,16.43
2019-03-19T17:38:40.544Z,15.47
2019-03-19T17:41:12.224Z,16.67
2019-03-19T17:43:43.944Z,16.37
2019-03-19T17:46:15.634Z,17.07
2019-03-19T17:48:47.392Z,16.77
2019-03-19T17:51:19.662Z,19.77
2019-03-19T17:53:51.366Z,23.33
2019-03-19T17:56:40.526Z,25.23
2019-03-19T17:59:13.629Z,20.25
2019-03-19T18:01:45.483Z,20.57
2019-03-19T18:04:17.198Z,21.10
2019-03-19T18:06:49.019Z,18.73
2019-03-19T18:09:20.674Z,21.07
2019-03-19T18:11:52.444Z,24.00
2019-03-19T18:14:24.076Z,23.90
2019-03-19T18:16:55.854Z,24.10
2019-03-19T18:19:27.756Z,26.17
2019-03-19T18:22:06.394Z,25.73
2019-03-19T18:24:38.124Z,25.20
2019-03-19T18:27:09.904Z,27.20
2019-03-19T18:29:41.676Z,24.73
2019-03-19T18:32:13.474Z,30.07
2019-03-19T18:34:45.190Z,30.10
2019-03-19T18:37:17.094Z,28.10
2019-03-19T18:39:48.824Z,24.33
2019-03-19T18:42:22.928Z,24.20
2019-03-19T18:44:55.612Z,22.00
2019-03-19T18:47:27.544Z,19.17
2019-03-19T18:49:59.295Z,19.10
2019-03-19T18:52:31.476Z,18.23
2019-03-19T18:55:04.282Z,17.37
2019-03-19T18:57:35.992Z,17.17
2019-03-19T19:00:09.499Z,18.65
2019-03-19T19:02:49.544Z,17.87
2019-03-19T19:05:17.985Z,18.60
2019-03-19T19:07:49.826Z,19.13
2019-03-19T19:10:22.003Z,22.27
2019-03-19T19:12:53.867Z,18.17
2019-03-19T19:15:25.782Z,17.03
2019-03-19T19:17:57.934Z,16.20
2019-03-19T19:20:29.865Z,15.87
2019-03-19T19:23:03.011Z,16.00
2019-03-19T19:25:34.904Z,20.68
2019-03-19T19:28:06.656Z,20.87
2019-03-19T19:30:39.174Z,26.37
2019-03-19T19:33:10.914Z,22.47
2019-03-19T19:35:42.645Z,32.57
2019-03-19T19:38:14.425Z,25.07
2019-03-19T19:40:46.296Z,25.77
2019-03-19T19:43:17.964Z,35.50
2019-03-19T19:45:49.708Z,21.20
2019-03-19T19:48:21.794Z,23.63
2019-03-19T19:50:54.524Z,23.67
2019-03-19T19:53:26.734Z,32.23
2019-03-19T19:55:58.364Z,32.23
2019-03-19T19:58:30.412Z,35.33
2019-03-19T20:01:02.114Z,21.50
2019-03-19T20:03:33.935Z,23.40
2019-03-19T20:06:05.604Z,21.27
2019-03-19T20:08:37.624Z,21.60
2019-03-19T20:11:09.294Z,33.23
2019-03-19T20:13:40.994Z,22.53
2019-03-19T20:16:13.652Z,22.13
2019-03-19T20:18:49.018Z,21.60
2019-03-19T20:21:20.822Z,21.80
2019-03-19T20:23:53.235Z,24.13
2019-03-19T20:26:24.874Z,24.37
2019-03-19T20:28:56.864Z,22.80
2019-03-19T20:31:28.534Z,20.87
2019-03-19T20:34:00.314Z,26.70
2019-03-19T20:36:31.968Z,20.30
2019-03-19T20:39:05.170Z,26.77
2019-03-19T20:41:37.234Z,21.60
2019-03-19T20:44:08.984Z,24.30
2019-03-19T20:46:40.924Z,22.33
2019-03-19T20:49:13.314Z,25.77
2019-03-19T20:51:45.185Z,29.90
2019-03-19T20:54:17.691Z,25.10
2019-03-19T20:56:49.420Z,29.20
2019-03-19T20:59:22.076Z,31.00
2019-03-19T21:01:53.846Z,25.83
2019-03-19T21:04:25.894Z,30.53
2019-03-19T21:06:57.485Z,30.87
2019-03-19T21:09:29.514Z,31.03
2019-03-19T21:12:01.265Z,31.63
2019-03-19T21:14:33.194Z,31.93
2019-03-19T21:17:04.897Z,30.30
2019-03-19T21:19:36.715Z,29.57
2019-03-19T21:22:08.456Z,30.03
2019-03-19T21:24:41.263Z,30.30
2019-03-19T21:27:13.152Z,30.07
2019-03-19T21:29:44.955Z,31.83
2019-03-19T21:32:16.595Z,32.73
2019-03-19T21:34:48.377Z,34.13
2019-03-19T21:37:20.034Z,37.00
2019-03-19T21:39:52.094Z,38.27
2019-03-19T21:42:24.024Z,38.10
2019-03-19T21:44:55.915Z,41.87
2019-03-19T21:47:27.635Z,43.77
2019-03-19T21:49:59.434Z,44.63
2019-03-19T21:52:31.165Z,43.37
2019-03-19T21:55:04.956Z,43.03
2019-03-19T21:57:36.674Z,41.90
2019-03-19T22:00:10.544Z,39.33
2019-03-19T22:02:50.515Z,33.23
2019-03-19T22:05:24.424Z,27.20
2019-03-19T22:07:56.354Z,26.93
2019-03-19T22:10:28.264Z,26.27
2019-03-19T22:13:00.194Z,26.57
2019-03-19T22:15:32.034Z,25.03
2019-03-19T22:18:03.825Z,25.97
2019-03-19T22:20:35.464Z,25.20
2019-03-19T22:23:08.125Z,24.93
2019-03-19T22:25:41.317Z,24.67
2019-03-19T22:28:12.874Z,25.30
2019-03-19T22:30:44.586Z,25.17
2019-03-19T22:33:16.192Z,24.50
2019-03-19T22:35:48.124Z,24.37
2019-03-19T22:38:19.802Z,25.83
2019-03-19T22:40:52.012Z,22.37
2019-03-19T22:43:25.953Z,23.17
2019-03-19T22:45:58.532Z,21.13
2019-03-19T22:48:30.484Z,20.67
2019-03-19T22:51:02.224Z,20.40
2019-03-19T22:53:33.994Z,19.60
2019-03-19T22:56:07.414Z,19.40
2019-03-19T22:58:39.388Z,19.20
2019-03-19T23:01:12.024Z,20.50
2019-03-19T23:03:43.734Z,19.10
2019-03-19T23:06:15.852Z,19.97
2019-03-19T23:08:47.615Z,20.73
2019-03-19T23:11:19.484Z,20.93
2019-03-19T23:13:51.395Z,20.93
2019-03-19T23:16:23.419Z,20.47
2019-03-19T23:18:55.196Z,20.63
2019-03-19T23:21:27.334Z,19.83
2019-03-19T23:23:59.124Z,21.10
2019-03-19T23:26:32.554Z,19.37
2019-03-19T23:29:04.285Z,18.70
2019-03-19T23:31:36.375Z,19.17
2019-03-19T23:34:08.315Z,19.00
2019-03-19T23:45:29.905Z,19.60
2019-03-19T23:48:01.495Z,18.33
2019-03-19T23:50:33.164Z,17.70
2019-03-19T23:53:04.724Z,19.40
2019-03-19T23:55:36.683Z,18.13
2019-03-19T23:58:08.842Z,18.60
